createdAt,value
2022-09-16T00:00:10.628Z,97275.94
2022-09-16T00:03:19.985Z,97274.94
2022-09-16T00:06:30.316Z,97280.94
2022-09-16T00:09:37.801Z,97294.81
2022-09-16T00:12:44.786Z,97296.44
2022-09-16T00:15:54.137Z,97300.75
2022-09-16T00:19:03.740Z,97292.88
2022-09-16T00:22:14.255Z,97293.56
2022-09-16T00:25:20.683Z,97297.63
2022-09-16T00:28:28.361Z,97295.25
2022-09-16T00:31:34.649Z,97299.53
2022-09-16T00:34:42.435Z,97301.34
2022-09-16T00:37:51.564Z,97295.25
2022-09-16T00:40:58.884Z,97307.97
2022-09-16T00:44:10.263Z,97309.34
2022-09-16T00:47:19.831Z,97300.28
2022-09-16T00:50:38.425Z,97300.00
2022-09-16T00:53:57.297Z,97303.84
2022-09-16T00:57:07.054Z,97306.34
2022-09-16T01:00:15.743Z,97307.19
2022-09-16T01:03:23.580Z,97307.78
2022-09-16T01:06:32.101Z,97304.31
2022-09-16T01:09:43.092Z,97318.41
2022-09-16T01:12:53.185Z,97311.50
2022-09-16T01:16:06.843Z,97317.97
2022-09-16T01:19:36.282Z,97312.00
2022-09-16T01:22:57.706Z,97312.69
2022-09-16T01:26:22.831Z,97307.72
2022-09-16T01:30:10.841Z,97303.53
2022-09-16T01:33:35.028Z,97305.56
2022-09-16T01:36:49.213Z,97311.34
2022-09-16T01:40:07.398Z,97300.81
2022-09-16T01:43:21.929Z,97308.69
2022-09-16T01:46:38.778Z,97303.13
2022-09-16T01:49:56.116Z,97306.13
2022-09-16T01:53:13.898Z,97306.50
2022-09-16T01:56:26.527Z,97304.25
2022-09-16T01:59:44.195Z,97300.91
2022-09-16T02:02:58.102Z,97306.41
2022-09-16T02:06:13.794Z,97296.13
2022-09-16T02:09:25.064Z,97302.09
2022-09-16T02:12:38.515Z,97322.44
2022-09-16T02:15:48.186Z,97319.47
2022-09-16T02:18:58.629Z,97320.81
2022-09-16T02:22:12.890Z,97325.94
2022-09-16T02:25:23.038Z,97327.00
2022-09-16T02:28:33.800Z,97326.28
2022-09-16T02:31:42.251Z,97336.22
2022-09-16T02:34:52.959Z,97328.69
2022-09-16T02:38:10.027Z,97323.56
2022-09-16T02:41:17.793Z,97328.00
2022-09-16T02:44:25.397Z,97327.38
2022-09-16T02:47:36.161Z,97324.66
2022-09-16T02:50:51.190Z,97334.94
2022-09-16T02:54:06.814Z,97329.66
2022-09-16T02:57:14.764Z,97328.00
2022-09-16T03:00:21.315Z,97321.06
2022-09-16T03:03:28.915Z,97326.34
2022-09-16T03:06:36.738Z,97325.13
2022-09-16T03:09:50.085Z,97334.47
2022-09-16T03:13:06.418Z,97333.97
2022-09-16T03:16:20.325Z,97329.91
2022-09-16T03:19:34.013Z,97334.34
2022-09-16T03:22:52.641Z,97337.09
2022-09-16T03:26:08.868Z,97334.47
2022-09-16T03:29:22.741Z,97328.25
2022-09-16T03:32:35.055Z,97326.47
2022-09-16T03:35:46.606Z,97329.91
2022-09-16T03:38:56.126Z,97333.50
2022-09-16T03:42:11.190Z,97332.91
2022-09-16T03:45:20.143Z,97327.31
2022-09-16T03:48:27.454Z,97331.34
2022-09-16T03:51:33.674Z,97331.59
2022-09-16T03:54:41.858Z,97326.59
2022-09-16T03:57:51.603Z,97329.44
2022-09-16T04:00:59.233Z,97325.41
2022-09-16T04:04:08.661Z,97336.13
2022-09-16T04:07:16.514Z,97333.25
2022-09-16T04:10:23.293Z,97329.91
2022-09-16T04:13:35.498Z,97325.13
2022-09-16T04:16:45.216Z,97323.56
2022-09-16T04:19:53.269Z,97328.13
2022-09-16T04:22:59.704Z,97315.09
2022-09-16T04:26:09.530Z,97318.69
2022-09-16T04:29:18.917Z,97315.69
2022-09-16T04:32:26.072Z,97313.56
2022-09-16T04:35:32.241Z,97324.41
2022-09-16T04:38:40.145Z,97317.00
2022-09-16T04:41:46.960Z,97318.22
2022-09-16T04:44:56.901Z,97315.09
2022-09-16T04:48:03.599Z,97317.97
2022-09-16T04:51:13.663Z,97322.28
2022-09-16T04:54:19.973Z,97321.69
2022-09-16T04:57:27.119Z,97319.53
2022-09-16T05:00:36.456Z,97319.88
2022-09-16T05:03:44.588Z,97321.56
2022-09-16T05:06:51.014Z,97324.88
2022-09-16T05:09:58.909Z,97317.72
2022-09-16T05:13:07.005Z,97320.56
2022-09-16T05:16:18.449Z,97323.66
2022-09-16T05:19:25.493Z,97318.16
2022-09-16T05:22:32.459Z,97311.59
2022-09-16T05:25:38.913Z,97318.38
2022-09-16T05:28:46.261Z,97322.72
2022-09-16T05:31:55.109Z,97319.13
2022-09-16T05:35:03.192Z,97311.84
2022-09-16T05:38:09.536Z,97327.00
2022-09-16T05:41:16.957Z,97327.44
2022-09-16T05:44:23.225Z,97340.34
2022-09-16T05:47:34.136Z,97340.03
2022-09-16T05:50:40.737Z,97329.66
2022-09-16T05:53:50.327Z,97334.03
2022-09-16T05:56:56.494Z,97337.22
2022-09-16T06:00:04.019Z,97335.38
2022-09-16T06:03:18.792Z,97342.38
2022-09-16T06:06:28.471Z,97336.59
2022-09-16T06:09:34.558Z,97309.94
2022-09-16T06:12:41.556Z,97311.69
2022-09-16T06:15:54.751Z,97328.69
2022-09-16T06:19:06.291Z,97327.88
2022-09-16T06:22:12.585Z,97333.44
2022-09-16T06:25:19.498Z,97327.91
2022-09-16T06:28:25.361Z,97334.97
2022-09-16T06:31:32.749Z,97333.16
2022-09-16T06:34:42.051Z,97325.78
2022-09-16T06:37:48.831Z,97328.50
2022-09-16T06:40:54.899Z,97338.53
2022-09-16T06:44:03.386Z,97331.72
2022-09-16T06:47:09.475Z,97330.16
2022-09-16T06:50:19.144Z,97335.34
2022-09-16T06:53:26.025Z,97332.13
2022-09-16T06:56:34.329Z,97335.16
2022-09-16T06:59:40.538Z,97335.16
2022-09-16T07:02:47.217Z,97341.31
2022-09-16T07:06:03.469Z,97342.59
2022-09-16T07:09:10.818Z,97337.50
2022-09-16T07:12:19.640Z,97345.00
2022-09-16T07:15:26.657Z,97349.16
2022-09-16T07:18:32.901Z,97347.78
2022-09-16T07:21:42.747Z,97354.44
2022-09-16T07:25:03.456Z,97360.19
2022-09-16T07:28:10.263Z,97353.66
2022-09-16T07:31:17.876Z,97357.25
2022-09-16T07:34:24.795Z,97357.00
2022-09-16T07:37:33.298Z,97357.97
2022-09-16T07:40:40.994Z,97356.13
2022-09-16T07:43:47.319Z,97355.69
2022-09-16T07:46:54.402Z,97363.03
2022-09-16T07:50:00.155Z,97359.94
2022-09-16T07:53:11.455Z,97368.66
2022-09-16T07:56:19.008Z,97364.34
2022-09-16T07:59:25.643Z,97369.34
2022-09-16T08:02:31.420Z,97370.03
2022-09-16T08:05:38.078Z,97366.03
2022-09-16T08:08:47.341Z,97369.16
2022-09-16T08:11:54.434Z,97363.38
2022-09-16T08:15:00.359Z,97368.97
2022-09-16T08:18:09.847Z,97363.38
2022-09-16T08:21:18.268Z,97358.16
2022-09-16T08:24:28.211Z,97356.63
2022-09-16T08:27:34.081Z,97366.84
2022-09-16T08:30:40.798Z,97369.91
2022-09-16T08:33:47.894Z,97362.94
2022-09-16T08:36:54.587Z,97361.03
2022-09-16T08:40:03.232Z,97371.44
2022-09-16T08:43:19.207Z,97366.59
2022-09-16T08:46:32.896Z,97370.63
2022-09-16T08:49:45.739Z,97372.97
2022-09-16T08:52:55.353Z,97372.56
2022-09-16T08:56:08.754Z,97372.69
2022-09-16T08:59:20.898Z,97366.03
2022-09-16T09:02:43.057Z,97367.97
2022-09-16T09:05:55.199Z,97355.34
2022-09-16T09:09:13.373Z,97352.97
2022-09-16T09:12:29.634Z,97358.19
2022-09-16T09:15:44.459Z,97363.19
2022-09-16T09:19:03.332Z,97373.84
2022-09-16T09:22:30.780Z,97393.50
2022-09-16T09:25:45.072Z,97368.75
2022-09-16T09:29:23.857Z,97374.63
2022-09-16T09:32:49.636Z,97373.22
2022-09-16T09:36:15.833Z,97386.06
2022-09-16T09:39:34.945Z,97373.25
2022-09-16T09:42:46.321Z,97358.50
2022-09-16T09:46:01.356Z,97367.81
2022-09-16T09:49:16.668Z,97372.25
2022-09-16T09:52:29.655Z,97366.84
2022-09-16T09:55:38.743Z,97363.50
2022-09-16T09:58:49.708Z,97359.72
2022-09-16T10:02:03.994Z,97361.00
2022-09-16T10:05:19.021Z,97352.03
2022-09-16T10:08:30.498Z,97347.25
2022-09-16T10:11:36.518Z,97336.88
2022-09-16T10:14:43.193Z,97337.19
2022-09-16T10:17:55.672Z,97340.31
2022-09-16T10:21:09.575Z,97345.25
2022-09-16T10:24:32.421Z,97342.78
2022-09-16T10:27:41.195Z,97338.72
2022-09-16T10:30:50.319Z,97339.56
2022-09-16T10:34:03.334Z,97338.72
2022-09-16T10:37:19.775Z,97345.81
2022-09-16T10:40:28.362Z,97341.88
2022-09-16T10:43:35.062Z,97346.75
2022-09-16T10:46:53.151Z,97343.81
2022-09-16T10:50:06.364Z,97344.22
2022-09-16T10:53:26.019Z,97341.28
2022-09-16T10:56:33.861Z,97342.22
2022-09-16T10:59:40.571Z,97334.44
2022-09-16T11:03:17.388Z,97336.59
2022-09-16T11:06:43.476Z,97337.69
2022-09-16T11:10:00.209Z,97321.72
2022-09-16T11:13:29.512Z,97332.59
2022-09-16T11:17:06.728Z,97322.22
2022-09-16T11:20:53.806Z,97311.09
2022-09-16T11:24:18.109Z,97298.03
2022-09-16T11:27:37.446Z,97302.78
2022-09-16T11:30:51.297Z,97306.88
2022-09-16T11:34:08.663Z,97307.84
2022-09-16T11:37:25.281Z,97301.59
2022-09-16T11:40:48.120Z,97297.94
2022-09-16T11:44:20.931Z,97285.44
2022-09-16T11:47:52.880Z,97301.97
2022-09-16T11:51:09.273Z,97295.75
2022-09-16T11:54:45.956Z,97293.25
2022-09-16T11:57:59.021Z,97279.19
2022-09-16T12:04:36.185Z,97281.56
2022-09-16T12:07:51.690Z,97281.47
2022-09-16T12:11:00.817Z,97273.22
2022-09-16T12:14:18.794Z,97270.56
2022-09-16T12:17:28.065Z,97269.06
2022-09-16T12:20:38.544Z,97273.59
2022-09-16T12:23:48.436Z,97266.31
2022-09-16T12:27:03.307Z,97263.28
2022-09-16T12:30:18.609Z,97262.38
2022-09-16T12:33:29.167Z,97268.09
2022-09-16T12:36:38.240Z,97267.06
2022-09-16T12:39:46.258Z,97267.06
2022-09-16T12:43:35.192Z,97262.16
2022-09-16T12:47:06.105Z,97250.94
2022-09-16T12:50:50.524Z,97254.56
2022-09-16T12:54:45.797Z,97250.00
2022-09-16T12:58:28.489Z,97260.31
2022-09-16T13:01:40.517Z,97261.00
2022-09-16T13:04:53.799Z,97268.59
2022-09-16T13:08:04.223Z,97264.72
2022-09-16T13:12:16.426Z,97269.84
2022-09-16T13:14:51.079Z,97274.84
2022-09-16T13:17:57.726Z,97266.75
2022-09-16T13:21:11.482Z,97263.06
2022-09-16T13:24:23.832Z,97271.69
2022-09-16T13:27:34.893Z,97288.19
2022-09-16T13:30:41.407Z,97281.47
2022-09-16T13:33:50.080Z,97284.03
2022-09-16T13:36:58.838Z,97274.88
2022-09-16T13:40:23.228Z,97279.00
2022-09-16T13:43:33.722Z,97283.78
2022-09-16T13:46:41.265Z,97284.28
2022-09-16T13:49:52.579Z,97284.47
2022-09-16T13:53:12.318Z,97273.09
2022-09-16T13:56:36.194Z,97279.00
2022-09-16T14:03:38.689Z,97272.66
2022-09-16T14:06:55.028Z,97287.47
2022-09-16T14:10:15.049Z,97284.84
2022-09-16T14:13:23.621Z,97282.78
2022-09-16T14:16:32.844Z,97283.19
2022-09-16T14:19:42.244Z,97266.16
2022-09-16T14:22:48.696Z,97258.41
2022-09-16T14:25:58.607Z,97259.56
2022-09-16T14:29:06.271Z,97258.53
2022-09-16T14:32:17.031Z,97254.97
2022-09-16T14:35:27.377Z,97253.50
2022-09-16T14:38:45.937Z,97258.63
2022-09-16T14:41:58.574Z,97256.97
2022-09-16T14:45:08.998Z,97259.34
2022-09-16T14:48:18.099Z,97249.25
2022-09-16T14:51:29.286Z,97255.94
2022-09-16T14:54:35.322Z,97244.03
2022-09-16T14:57:45.297Z,97245.59
2022-09-16T15:00:55.184Z,97244.38
2022-09-16T15:04:07.437Z,97245.84
2022-09-16T15:07:19.597Z,97242.50
2022-09-16T15:10:35.846Z,97237.44
2022-09-16T15:13:57.939Z,97249.41
2022-09-16T15:17:07.066Z,97238.91
2022-09-16T15:20:23.661Z,97226.88
2022-09-16T15:23:32.252Z,97234.50
2022-09-16T15:26:45.261Z,97227.03
2022-09-16T15:29:59.605Z,97226.47
2022-09-16T15:33:31.212Z,97228.72
2022-09-16T15:36:43.103Z,97221.22
2022-09-16T15:39:48.980Z,97214.84
2022-09-16T15:43:07.833Z,97211.94
2022-09-16T15:46:22.458Z,97215.72
2022-09-16T15:49:33.316Z,97210.97
2022-09-16T15:53:00.730Z,97208.78
2022-09-16T15:56:12.188Z,97208.78
2022-09-16T15:59:29.214Z,97214.63
2022-09-16T16:02:47.782Z,97214.06
2022-09-16T16:05:55.159Z,97217.09
2022-09-16T16:09:03.156Z,97212.91
2022-09-16T16:12:11.808Z,97214.88
2022-09-16T16:15:20.140Z,97209.03
2022-09-16T16:18:29.173Z,97220.97
2022-09-16T16:21:36.075Z,97215.28
2022-09-16T16:24:42.743Z,97218.91
2022-09-16T16:27:49.623Z,97209.31
2022-09-16T16:30:55.770Z,97209.31
2022-09-16T16:34:06.155Z,97206.25
2022-09-16T16:37:33.862Z,97206.25
2022-09-16T16:40:42.081Z,97194.88
2022-09-16T16:43:48.069Z,97194.06
2022-09-16T16:46:56.053Z,97195.69
2022-09-16T16:50:06.465Z,97192.09
2022-09-16T16:53:14.369Z,97199.03
2022-09-16T16:56:21.692Z,97204.31
2022-09-16T16:59:29.537Z,97205.28
2022-09-16T17:02:35.392Z,97200.56
2022-09-16T17:05:44.875Z,97207.09
2022-09-16T17:08:50.676Z,97214.69
2022-09-16T17:11:58.981Z,97208.47
2022-09-16T17:15:06.476Z,97212.91
2022-09-16T17:18:13.474Z,97211.38
2022-09-16T17:21:23.877Z,97220.38
2022-09-16T17:24:30.463Z,97213.72
2022-09-16T17:27:36.181Z,97220.38
2022-09-16T17:30:46.118Z,97211.22
2022-09-16T17:33:52.408Z,97203.16
2022-09-16T17:37:03.046Z,97216.16
2022-09-16T17:40:10.053Z,97221.94
2022-09-16T17:43:16.973Z,97224.38
2022-09-16T17:46:23.630Z,97229.59
2022-09-16T17:49:30.519Z,97231.22
2022-09-16T17:52:39.078Z,97223.81
2022-09-16T17:55:45.892Z,97223.28
2022-09-16T17:58:54.074Z,97226.16
2022-09-16T18:02:00.669Z,97226.41
2022-09-16T18:05:08.504Z,97242.47
2022-09-16T18:08:18.001Z,97234.72
2022-09-16T18:11:24.633Z,97241.06
2022-09-16T18:14:31.495Z,97240.09
2022-09-16T18:17:37.239Z,97243.00
2022-09-16T18:20:44.104Z,97233.69
2022-09-16T18:23:57.033Z,97237.41
2022-09-16T18:27:04.008Z,97245.72
2022-09-16T18:30:11.105Z,97235.28
2022-09-16T18:33:18.499Z,97248.13
2022-09-16T18:36:25.703Z,97246.84
2022-09-16T18:39:37.485Z,97248.91
2022-09-16T18:42:43.238Z,97249.19
2022-09-16T18:45:50.147Z,97259.94
2022-09-16T18:48:56.923Z,97255.88
2022-09-16T18:52:04.267Z,97256.97
2022-09-16T18:55:13.063Z,97254.47
2022-09-16T18:58:19.883Z,97251.84
2022-09-16T19:01:28.988Z,97253.41
2022-09-16T19:04:40.642Z,97253.25
2022-09-16T19:07:46.395Z,97265.72
2022-09-16T19:10:58.667Z,97263.06
2022-09-16T19:14:05.965Z,97270.25
2022-09-16T19:17:13.173Z,97260.13
2022-09-16T19:20:19.323Z,97268.13
2022-09-16T19:23:26.440Z,97275.31
2022-09-16T19:26:38.247Z,97274.16
2022-09-16T19:29:45.444Z,97262.44
2022-09-16T19:32:53.732Z,97262.97
2022-09-16T19:36:01.368Z,97253.75
2022-09-16T19:39:08.771Z,97258.41
2022-09-16T19:42:18.519Z,97242.63
2022-09-16T19:45:27.872Z,97247.66
2022-09-16T19:48:35.768Z,97257.72
2022-09-16T19:51:42.426Z,97250.53
2022-09-16T19:54:49.624Z,97255.28
2022-09-16T19:57:58.454Z,97254.59
2022-09-16T20:01:10.203Z,97257.31
2022-09-16T20:04:20.085Z,97258.16
2022-09-16T20:07:28.246Z,97252.91
2022-09-16T20:10:35.104Z,97248.34
2022-09-16T20:13:44.959Z,97248.13
2022-09-16T20:16:52.709Z,97248.75
2022-09-16T20:19:59.596Z,97255.78
2022-09-16T20:23:08.720Z,97260.94
2022-09-16T20:26:20.099Z,97261.09
2022-09-16T20:29:28.922Z,97261.81
2022-09-16T20:32:35.781Z,97277.13
2022-09-16T20:35:41.714Z,97270.47
2022-09-16T20:38:49.089Z,97273.84
2022-09-16T20:41:55.279Z,97273.22
2022-09-16T20:45:07.373Z,97275.25
2022-09-16T20:48:13.964Z,97280.03
2022-09-16T20:51:22.709Z,97279.69
2022-09-16T20:54:28.863Z,97284.56
2022-09-16T20:57:36.162Z,97273.56
2022-09-16T21:00:45.411Z,97268.56
2022-09-16T21:03:55.304Z,97273.31
2022-09-16T21:07:03.313Z,97276.53
2022-09-16T21:10:11.609Z,97274.50
2022-09-16T21:13:17.662Z,97276.03
2022-09-16T21:16:29.677Z,97265.84
2022-09-16T21:19:35.982Z,97265.38
2022-09-16T21:22:43.068Z,97264.88
2022-09-16T21:25:49.137Z,97268.56
2022-09-16T21:28:58.154Z,97272.28
2022-09-16T21:32:10.023Z,97278.72
2022-09-16T21:35:17.373Z,97284.41
2022-09-16T21:38:23.825Z,97282.72
2022-09-16T21:41:31.356Z,97282.72
2022-09-16T21:44:37.584Z,97280.00
2022-09-16T21:47:47.531Z,97280.84
2022-09-16T21:50:53.897Z,97284.84
2022-09-16T21:54:00.901Z,97294.75
2022-09-16T21:57:08.123Z,97298.19
2022-09-16T22:00:17.902Z,97302.50
2022-09-16T22:03:26.851Z,97296.53
2022-09-16T22:06:34.079Z,97296.03
2022-09-16T22:09:39.924Z,97289.31
2022-09-16T22:12:46.767Z,97299.81
2022-09-16T22:15:53.288Z,97303.63
2022-09-16T22:19:06.991Z,97300.50
2022-09-16T22:22:12.755Z,97307.66
2022-09-16T22:25:19.494Z,97305.97
2022-09-16T22:28:25.270Z,97305.97
2022-09-16T22:31:33.819Z,97300.09
2022-09-16T22:34:42.394Z,97305.59
2022-09-16T22:37:51.307Z,97304.97
2022-09-16T22:41:03.322Z,97304.03
2022-09-16T22:44:10.085Z,97299.59
2022-09-16T22:47:15.840Z,97296.16
2022-09-16T22:50:25.188Z,97289.25
2022-09-16T22:53:32.090Z,97289.47
2022-09-16T22:56:38.737Z,97292.50
2022-09-16T22:59:44.989Z,97287.53
2022-09-16T23:02:51.700Z,97293.69
2022-09-16T23:06:03.363Z,97288.66
2022-09-16T23:09:11.750Z,97290.56
2022-09-16T23:12:17.999Z,97288.88
2022-09-16T23:15:26.655Z,97290.78
2022-09-16T23:18:34.383Z,97286.72
2022-09-16T23:21:44.665Z,97285.75
2022-09-16T23:24:50.572Z,97274.56
2022-09-16T23:27:58.381Z,97271.94
2022-09-16T23:31:08.688Z,97277.19
2022-09-16T23:34:17.935Z,97274.78
2022-09-16T23:37:26.932Z,97270.50
2022-09-16T23:40:33.902Z,97268.19
2022-09-16T23:43:41.550Z,97269.25
2022-09-16T23:46:48.321Z,97274.72
2022-09-16T23:49:54.504Z,97274.72
2022-09-16T23:53:06.084Z,97274.72
2022-09-16T23:56:14.294Z,97278.06
2022-09-16T23:59:21.259Z,97279.72
